createdAt,value
2023-01-25T00:00:00.605Z,335.9
2023-01-25T00:05:00.559Z,337.5
2023-01-25T00:10:00.626Z,66.6
2023-01-25T00:15:00.596Z,24.9
2023-01-25T00:20:00.588Z,22.5
2023-01-25T00:25:00.617Z,81.2
2023-01-25T00:30:00.627Z,143.2
2023-01-25T00:35:00.529Z,251.0
2023-01-25T00:40:00.620Z,244.4
2023-01-25T00:45:00.539Z,269.6
2023-01-25T00:50:00.665Z,226.7
2023-01-25T00:55:01.135Z,259.8
2023-01-25T01:00:00.665Z,299.6
2023-01-25T01:05:00.791Z,318.4
2023-01-25T01:10:00.679Z,308.6
2023-01-25T01:15:00.529Z,310.5
2023-01-25T01:20:00.626Z,292.9
2023-01-25T01:25:00.605Z,292.5
2023-01-25T01:30:00.653Z,292.5
2023-01-25T01:35:00.617Z,318.5
2023-01-25T01:40:00.623Z,345.7
2023-01-25T01:45:00.623Z,308.5
2023-01-25T01:50:00.617Z,292.6
2023-01-25T01:55:00.549Z,355.4
2023-01-25T02:00:00.690Z,344.5
2023-01-25T02:05:00.703Z,18.5
2023-01-25T02:10:00.609Z,22.5
2023-01-25T02:15:00.534Z,22.5
2023-01-25T02:20:00.580Z,2.7
2023-01-25T02:25:00.640Z,233.9
2023-01-25T02:30:00.622Z,225.1
2023-01-25T02:35:00.557Z,261.5
2023-01-25T02:40:00.662Z,269.9
2023-01-25T02:45:00.535Z,270.0
2023-01-25T02:50:00.586Z,292.1
2023-01-25T02:55:00.596Z,292.5
2023-01-25T03:00:00.657Z,292.5
2023-01-25T03:05:00.596Z,233.4
2023-01-25T03:10:00.572Z,237.7
2023-01-25T03:15:00.606Z,269.8
2023-01-25T03:20:00.658Z,292.0
2023-01-25T03:25:00.577Z,270.2
2023-01-25T03:30:00.610Z,18.5
2023-01-25T03:35:00.530Z,22.5
2023-01-25T03:40:00.675Z,22.5
2023-01-25T03:45:00.633Z,4.9
2023-01-25T03:50:00.638Z,0.0
2023-01-25T03:55:00.878Z,337.8
2023-01-25T04:00:00.596Z,337.5
2023-01-25T04:05:00.588Z,337.5
2023-01-25T04:10:00.637Z,337.5
2023-01-25T04:15:00.618Z,337.5
2023-01-25T04:20:00.653Z,337.5
2023-01-25T04:25:00.624Z,337.5
2023-01-25T04:30:00.595Z,337.5
2023-01-25T04:35:00.637Z,275.2
2023-01-25T04:40:00.636Z,270.0
2023-01-25T04:45:00.589Z,270.0
2023-01-25T04:50:00.665Z,270.0
2023-01-25T04:55:00.527Z,209.5
2023-01-25T05:00:00.647Z,181.2
2023-01-25T05:05:00.634Z,182.1
2023-01-25T05:10:00.571Z,220.5
2023-01-25T05:15:00.599Z,255.7
2023-01-25T05:20:00.711Z,273.1
2023-01-25T05:25:00.531Z,258.6
2023-01-25T05:30:00.792Z,266.7
2023-01-25T05:35:01.360Z,241.2
2023-01-25T05:40:00.664Z,206.8
2023-01-25T05:45:00.696Z,242.4
2023-01-25T05:50:00.632Z,223.0
2023-01-25T05:55:00.584Z,219.4
2023-01-25T06:00:00.587Z,249.0
2023-01-25T06:05:00.612Z,206.3
2023-01-25T06:10:00.592Z,215.6
2023-01-25T06:15:00.620Z,206.2
2023-01-25T06:20:00.604Z,212.9
2023-01-25T06:25:00.635Z,215.5
2023-01-25T06:30:00.618Z,237.3
2023-01-25T06:35:00.565Z,197.8
2023-01-25T06:40:00.693Z,220.4
2023-01-25T06:45:00.652Z,234.0
2023-01-25T06:50:00.632Z,211.2
2023-01-25T06:55:00.739Z,203.3
2023-01-25T07:00:00.575Z,225.6
2023-01-25T07:05:00.581Z,200.9
2023-01-25T07:10:00.717Z,219.3
2023-01-25T07:15:00.652Z,216.5
2023-01-25T07:20:00.664Z,194.2
2023-01-25T07:25:00.575Z,188.0
2023-01-25T07:30:00.567Z,185.5
2023-01-25T07:35:00.616Z,199.8
2023-01-25T07:40:00.594Z,198.6
2023-01-25T07:45:00.607Z,202.3
2023-01-25T07:50:00.666Z,189.2
2023-01-25T07:55:00.582Z,194.9
2023-01-25T08:00:00.608Z,205.8
2023-01-25T08:05:00.554Z,195.0
2023-01-25T08:10:00.573Z,199.9
2023-01-25T08:15:00.591Z,214.4
2023-01-25T08:20:00.591Z,194.0
2023-01-25T08:25:00.580Z,210.7
2023-01-25T08:30:00.705Z,187.8
2023-01-25T08:35:00.620Z,213.6
2023-01-25T08:40:00.633Z,193.9
2023-01-25T08:45:00.559Z,234.0
2023-01-25T08:50:00.734Z,203.4
2023-01-25T08:55:00.675Z,233.2
2023-01-25T09:00:00.638Z,242.0
2023-01-25T09:05:00.614Z,220.3
2023-01-25T09:10:00.584Z,221.2
2023-01-25T09:15:00.570Z,210.1
2023-01-25T09:20:00.636Z,204.8
2023-01-25T09:25:00.522Z,229.6
2023-01-25T09:30:19.506Z,231.2
2023-01-25T09:35:00.620Z,236.9
2023-01-25T09:40:00.834Z,191.1
2023-01-25T09:45:00.796Z,197.6
2023-01-25T09:50:00.584Z,203.2
2023-01-25T09:55:00.593Z,202.8
2023-01-25T10:00:02.731Z,223.3
2023-01-25T10:05:00.543Z,193.5
2023-01-25T10:10:00.596Z,198.4
2023-01-25T10:15:00.599Z,202.6
2023-01-25T10:20:01.113Z,182.8
2023-01-25T10:25:00.586Z,192.9
2023-01-25T10:30:00.705Z,189.5
2023-01-25T10:35:00.700Z,221.4
2023-01-25T10:40:00.607Z,202.7
2023-01-25T10:45:00.564Z,227.3
2023-01-25T10:50:00.616Z,237.3
2023-01-25T10:55:00.609Z,197.8
2023-01-25T11:00:00.623Z,221.8
2023-01-25T11:05:00.790Z,213.7
2023-01-25T11:10:00.676Z,213.0
2023-01-25T11:15:00.557Z,196.5
2023-01-25T11:20:00.605Z,221.9
2023-01-25T11:25:00.620Z,202.3
2023-01-25T11:30:00.579Z,234.4
2023-01-25T11:35:00.713Z,219.0
2023-01-25T11:40:00.833Z,194.3
2023-01-25T11:45:00.521Z,208.1
2023-01-25T11:50:00.612Z,221.7
2023-01-25T11:55:00.541Z,215.3
2023-01-25T12:00:00.665Z,204.3
2023-01-25T12:05:22.266Z,191.6
2023-01-25T12:10:00.615Z,186.4
2023-01-25T12:15:00.854Z,190.9
2023-01-25T12:20:00.730Z,189.5
2023-01-25T12:25:00.617Z,191.1
2023-01-25T12:30:00.733Z,203.0
2023-01-25T12:35:00.543Z,221.0
2023-01-25T12:40:00.603Z,197.1
2023-01-25T12:45:00.564Z,190.7
2023-01-25T12:50:00.701Z,193.9
2023-01-25T12:55:00.587Z,180.2
2023-01-25T13:00:00.643Z,197.7
2023-01-25T13:05:00.599Z,186.3
2023-01-25T13:10:00.620Z,193.6
2023-01-25T13:15:00.598Z,218.8
2023-01-25T13:20:00.688Z,201.5
2023-01-25T13:25:00.649Z,202.5
2023-01-25T13:30:00.747Z,224.7
2023-01-25T13:35:00.713Z,205.5
2023-01-25T13:40:08.743Z,198.4
2023-01-25T13:45:00.580Z,198.6
2023-01-25T13:50:00.709Z,176.4
2023-01-25T13:55:00.635Z,187.2
2023-01-25T14:00:11.907Z,219.6
2023-01-25T14:05:00.566Z,200.1
2023-01-25T14:10:00.726Z,227.8
2023-01-25T14:15:00.584Z,197.2
2023-01-25T14:20:00.740Z,201.3
2023-01-25T14:25:00.600Z,195.0
2023-01-25T14:30:00.757Z,211.6
2023-01-25T14:35:00.672Z,194.8
2023-01-25T14:40:00.647Z,196.3
2023-01-25T14:45:00.628Z,232.7
2023-01-25T14:50:00.636Z,253.6
2023-01-25T14:55:00.651Z,213.8
2023-01-25T15:00:00.628Z,205.1
2023-01-25T15:05:16.337Z,238.6
2023-01-25T15:10:00.643Z,194.2
2023-01-25T15:15:00.581Z,209.2
2023-01-25T15:20:00.649Z,201.1
2023-01-25T15:25:00.589Z,188.2
2023-01-25T15:30:00.603Z,201.2
2023-01-25T15:35:00.618Z,190.6
2023-01-25T15:40:00.610Z,223.8
2023-01-25T15:45:00.712Z,202.9
2023-01-25T15:50:00.849Z,204.0
2023-01-25T15:55:02.830Z,219.3
2023-01-25T16:00:03.003Z,216.6
2023-01-25T16:05:00.604Z,204.7
2023-01-25T16:10:00.909Z,197.4
2023-01-25T16:15:00.577Z,226.8
2023-01-25T16:20:00.661Z,220.0
2023-01-25T16:25:00.665Z,201.8
2023-01-25T16:30:00.654Z,212.7
2023-01-25T16:35:00.665Z,211.7
2023-01-25T16:40:00.624Z,216.6
2023-01-25T16:45:00.546Z,218.0
2023-01-25T16:50:00.626Z,209.0
2023-01-25T16:55:00.634Z,202.8
2023-01-25T17:00:03.585Z,208.3
2023-01-25T17:05:00.640Z,216.8
2023-01-25T17:10:00.640Z,192.8
2023-01-25T17:15:00.570Z,216.9
2023-01-25T17:20:00.600Z,214.8
2023-01-25T17:25:00.703Z,229.2
2023-01-25T17:30:00.645Z,226.2
2023-01-25T17:35:00.650Z,207.0
2023-01-25T17:40:00.640Z,198.6
2023-01-25T17:45:00.673Z,241.0
2023-01-25T17:50:00.607Z,212.9
2023-01-25T17:55:00.757Z,247.2
2023-01-25T18:00:00.608Z,222.2
2023-01-25T18:05:00.575Z,192.1
2023-01-25T18:10:00.709Z,221.7
2023-01-25T18:15:00.577Z,208.8
2023-01-25T18:20:00.814Z,209.8
2023-01-25T18:25:00.521Z,218.4
2023-01-25T18:30:00.730Z,200.2
2023-01-25T18:35:00.587Z,208.1
2023-01-25T18:40:00.598Z,189.3
2023-01-25T18:45:00.616Z,184.6
2023-01-25T18:50:01.037Z,190.7
2023-01-25T18:55:00.679Z,183.7
2023-01-25T19:00:00.604Z,206.5
2023-01-25T19:05:00.636Z,207.5
2023-01-25T19:10:02.577Z,214.5
2023-01-25T19:15:00.692Z,199.7
2023-01-25T19:20:00.658Z,185.5
2023-01-25T19:25:00.561Z,197.8
2023-01-25T19:30:02.542Z,209.1
2023-01-25T19:35:00.594Z,202.7
2023-01-25T19:40:00.655Z,198.3
2023-01-25T19:45:00.738Z,191.4
2023-01-25T19:50:00.648Z,208.2
2023-01-25T19:55:00.630Z,196.9
2023-01-25T20:00:00.738Z,203.3
2023-01-25T20:05:00.623Z,235.1
2023-01-25T20:10:00.613Z,197.7
2023-01-25T20:15:00.613Z,210.8
2023-01-25T20:20:00.669Z,235.4
2023-01-25T20:25:00.591Z,222.8
2023-01-25T20:30:00.616Z,245.2
2023-01-25T20:35:00.598Z,253.2
2023-01-25T20:40:00.642Z,238.9
2023-01-25T20:45:00.674Z,228.8
2023-01-25T20:50:00.793Z,203.2
2023-01-25T20:55:00.662Z,197.8
2023-01-25T21:00:00.638Z,204.5
2023-01-25T21:05:00.603Z,199.1
2023-01-25T21:10:00.612Z,210.5
2023-01-25T21:15:00.715Z,201.1
2023-01-25T21:20:00.621Z,240.9
2023-01-25T21:25:00.610Z,211.2
2023-01-25T21:30:00.785Z,212.6
2023-01-25T21:35:00.538Z,193.2
2023-01-25T21:40:00.658Z,245.1
2023-01-25T21:45:00.530Z,254.6
2023-01-25T21:50:00.819Z,259.5
2023-01-25T21:55:00.567Z,245.3
2023-01-25T22:00:00.774Z,209.8
2023-01-25T22:05:00.590Z,213.7
2023-01-25T22:10:00.632Z,243.9
2023-01-25T22:15:00.571Z,245.9
2023-01-25T22:20:00.586Z,248.6
2023-01-25T22:25:00.871Z,229.4
2023-01-25T22:30:00.692Z,241.3
2023-01-25T22:35:00.598Z,236.6
2023-01-25T22:40:00.580Z,246.8
2023-01-25T22:45:00.598Z,198.3
2023-01-25T22:50:00.731Z,207.7
2023-01-25T22:55:00.576Z,205.9
2023-01-25T23:00:00.744Z,212.3
2023-01-25T23:05:00.598Z,219.3
2023-01-25T23:10:00.598Z,262.0
2023-01-25T23:15:00.569Z,214.6
2023-01-25T23:20:00.607Z,228.0
2023-01-25T23:25:00.521Z,232.0
2023-01-25T23:30:00.587Z,248.3
2023-01-25T23:35:00.586Z,220.7
2023-01-25T23:40:00.585Z,200.1
2023-01-25T23:45:00.648Z,255.0
2023-01-25T23:50:00.667Z,261.0
2023-01-25T23:55:00.542Z,223.5
